createdAt,value
2023-02-16T00:00:29.071Z,27.67
2023-02-16T00:02:56.657Z,27.70
2023-02-16T00:05:35.212Z,28.33
2023-02-16T00:08:03.000Z,29.60
2023-02-16T00:10:36.397Z,37.17
2023-02-16T00:13:41.851Z,39.93
2023-02-16T00:16:21.867Z,47.93
2023-02-16T00:18:50.182Z,41.10
2023-02-16T00:21:18.934Z,37.30
2023-02-16T00:23:48.265Z,33.90
2023-02-16T00:26:20.936Z,23.50
2023-02-16T00:28:54.094Z,18.57
2023-02-16T00:31:27.240Z,19.83
2023-02-16T00:33:55.964Z,22.27
2023-02-16T00:36:25.145Z,23.00
2023-02-16T00:38:52.721Z,23.73
2023-02-16T00:41:43.813Z,21.97
2023-02-16T00:44:23.826Z,19.47
2023-02-16T00:46:51.435Z,20.93
2023-02-16T00:49:21.587Z,23.47
2023-02-16T00:51:50.816Z,17.70
2023-02-16T00:54:18.325Z,18.53
2023-02-16T00:56:46.715Z,19.13
2023-02-16T00:59:21.554Z,16.67
2023-02-16T01:01:49.964Z,17.73
2023-02-16T01:04:23.902Z,13.83
2023-02-16T01:07:10.191Z,14.03
2023-02-16T01:09:56.349Z,12.73
2023-02-16T01:12:23.950Z,15.50
2023-02-16T01:14:54.906Z,22.80
2023-02-16T01:17:25.261Z,26.30
2023-02-16T01:19:55.002Z,27.07
2023-02-16T01:22:22.519Z,23.53
2023-02-16T01:24:50.051Z,16.93
2023-02-16T01:27:18.732Z,15.07
2023-02-16T01:29:46.248Z,15.80
2023-02-16T01:32:16.067Z,12.47
2023-02-16T01:35:03.633Z,12.87
2023-02-16T01:37:31.204Z,12.83
2023-02-16T01:39:58.693Z,12.40
2023-02-16T01:42:49.654Z,14.40
2023-02-16T01:45:26.982Z,11.20
2023-02-16T01:48:03.016Z,11.90
2023-02-16T01:50:48.119Z,12.30
2023-02-16T01:53:44.450Z,11.57
2023-02-16T01:56:39.579Z,12.03
2023-02-16T01:59:27.848Z,12.33
2023-02-16T02:02:00.137Z,12.03
2023-02-16T02:05:10.753Z,13.10
2023-02-16T02:08:10.099Z,17.30
2023-02-16T02:11:17.135Z,17.70
2023-02-16T02:14:01.098Z,24.50
2023-02-16T02:16:29.511Z,25.27
2023-02-16T02:18:57.078Z,57.63
2023-02-16T02:22:20.145Z,30.20
2023-02-16T02:25:56.561Z,48.80
2023-02-16T02:28:37.835Z,54.67
2023-02-16T02:31:15.649Z,40.73
2023-02-16T02:34:11.066Z,50.33
2023-02-16T02:36:50.196Z,34.13
2023-02-16T02:39:54.069Z,36.00
2023-02-16T02:42:33.146Z,40.40
2023-02-16T02:45:16.474Z,32.00
2023-02-16T02:47:47.314Z,28.73
2023-02-16T02:50:41.196Z,31.57
2023-02-16T02:53:15.123Z,26.77
2023-02-16T02:56:08.369Z,27.03
2023-02-16T02:58:57.136Z,27.87
2023-02-16T03:01:25.521Z,35.47
2023-02-16T03:03:57.205Z,35.73
2023-02-16T03:06:33.660Z,29.73
2023-02-16T03:09:08.702Z,26.60
2023-02-16T03:11:54.833Z,29.40
2023-02-16T03:14:43.424Z,24.53
2023-02-16T03:17:36.703Z,28.53
2023-02-16T03:20:28.005Z,34.60
2023-02-16T03:23:15.303Z,38.17
2023-02-16T03:26:02.048Z,57.53
2023-02-16T03:28:51.005Z,59.33
2023-02-16T03:31:26.979Z,46.77
2023-02-16T03:33:55.158Z,44.60
2023-02-16T03:36:26.427Z,50.17
2023-02-16T03:38:55.485Z,54.80
2023-02-16T03:41:24.290Z,47.47
2023-02-16T03:43:52.109Z,50.77
2023-02-16T03:46:19.670Z,40.33
2023-02-16T03:48:47.288Z,44.03
2023-02-16T03:51:14.955Z,45.37
2023-02-16T03:53:42.507Z,45.53
2023-02-16T03:56:09.969Z,48.70
2023-02-16T03:58:37.373Z,42.67
2023-02-16T04:01:05.600Z,51.03
2023-02-16T04:03:34.224Z,49.67
2023-02-16T04:06:01.879Z,50.47
2023-02-16T04:08:29.448Z,44.10
2023-02-16T04:10:57.652Z,54.77
2023-02-16T04:13:25.687Z,55.77
2023-02-16T04:15:53.366Z,49.87
2023-02-16T04:18:20.873Z,44.10
2023-02-16T04:20:48.296Z,47.83
2023-02-16T04:23:15.750Z,48.40
2023-02-16T04:25:43.267Z,46.13
2023-02-16T04:28:10.796Z,48.70
2023-02-16T04:30:38.337Z,47.60
2023-02-16T04:33:05.926Z,50.63
2023-02-16T04:35:33.386Z,60.90
2023-02-16T04:38:00.851Z,56.83
2023-02-16T04:40:29.738Z,53.37
2023-02-16T04:42:57.244Z,47.90
2023-02-16T04:45:24.685Z,52.00
2023-02-16T04:47:52.762Z,55.37
2023-02-16T04:50:20.340Z,57.50
2023-02-16T04:52:47.941Z,40.47
2023-02-16T04:55:15.349Z,39.60
2023-02-16T04:57:42.956Z,35.03
2023-02-16T05:00:12.272Z,35.10
2023-02-16T05:02:39.881Z,39.23
2023-02-16T05:05:08.307Z,34.67
2023-02-16T05:07:36.990Z,56.20
2023-02-16T05:10:05.664Z,41.63
2023-02-16T05:12:51.788Z,48.97
2023-02-16T05:15:19.505Z,45.17
2023-02-16T05:17:47.115Z,52.30
2023-02-16T05:20:15.097Z,57.97
2023-02-16T05:22:43.581Z,48.23
2023-02-16T05:25:11.060Z,53.33
2023-02-16T05:27:38.548Z,84.20
2023-02-16T05:30:06.817Z,69.83
2023-02-16T05:32:34.280Z,59.13
2023-02-16T05:35:01.881Z,62.33
2023-02-16T05:37:29.373Z,73.07
2023-02-16T05:39:57.129Z,72.57
2023-02-16T05:42:24.546Z,96.40
2023-02-16T05:44:51.993Z,106.70
2023-02-16T05:47:19.450Z,115.03
2023-02-16T05:49:46.972Z,110.53
2023-02-16T05:52:14.426Z,131.97
2023-02-16T05:54:41.877Z,118.37
2023-02-16T05:57:10.813Z,147.33
2023-02-16T05:59:38.394Z,132.60
2023-02-16T06:02:05.936Z,181.00
2023-02-16T06:04:33.396Z,140.13
2023-02-16T06:07:01.035Z,123.87
2023-02-16T06:09:28.720Z,111.93
2023-02-16T06:11:56.258Z,96.17
2023-02-16T06:14:23.825Z,72.93
2023-02-16T06:16:51.937Z,59.87
2023-02-16T06:19:20.658Z,67.23
2023-02-16T06:21:48.993Z,63.63
2023-02-16T06:24:16.824Z,53.67
2023-02-16T06:26:44.367Z,59.87
2023-02-16T06:29:12.058Z,52.33
2023-02-16T06:31:39.652Z,43.47
2023-02-16T06:34:07.588Z,41.23
2023-02-16T06:36:35.245Z,34.20
2023-02-16T06:39:03.427Z,60.27
2023-02-16T06:41:31.537Z,53.70
2023-02-16T06:44:07.314Z,43.13
2023-02-16T06:46:35.320Z,38.93
2023-02-16T06:49:02.976Z,49.03
2023-02-16T06:51:30.781Z,36.73
2023-02-16T06:53:58.875Z,37.70
2023-02-16T06:56:26.546Z,47.50
2023-02-16T06:58:54.151Z,40.70
2023-02-16T07:01:26.073Z,29.23
2023-02-16T07:03:55.918Z,27.93
2023-02-16T07:06:27.205Z,28.57
2023-02-16T07:09:00.736Z,27.87
2023-02-16T07:11:28.359Z,34.77
2023-02-16T07:13:55.999Z,29.33
2023-02-16T07:16:23.812Z,30.93
2023-02-16T07:18:51.730Z,27.63
2023-02-16T07:21:19.223Z,28.47
2023-02-16T07:23:46.962Z,28.57
2023-02-16T07:26:14.587Z,28.27
2023-02-16T07:28:42.102Z,28.60
2023-02-16T07:31:15.863Z,29.87
2023-02-16T07:33:46.691Z,29.93
2023-02-16T07:36:14.771Z,27.37
2023-02-16T07:38:45.440Z,30.70
2023-02-16T07:41:13.592Z,30.57
2023-02-16T07:43:42.949Z,31.33
2023-02-16T07:46:11.262Z,32.20
2023-02-16T07:48:38.789Z,31.27
2023-02-16T07:51:06.873Z,34.73
2023-02-16T07:53:34.676Z,36.30
2023-02-16T07:56:02.268Z,32.47
2023-02-16T07:58:29.796Z,30.10
2023-02-16T08:01:12.736Z,29.27
2023-02-16T08:03:42.257Z,29.20
2023-02-16T08:06:09.837Z,29.37
2023-02-16T08:08:38.527Z,35.70
2023-02-16T08:11:12.583Z,33.13
2023-02-16T08:13:40.806Z,31.77
2023-02-16T08:16:20.271Z,28.73
2023-02-16T08:18:48.011Z,32.80
2023-02-16T08:21:19.125Z,34.03
2023-02-16T08:23:55.460Z,31.10
2023-02-16T08:26:25.624Z,29.10
2023-02-16T08:28:53.636Z,31.23
2023-02-16T08:31:25.561Z,29.40
2023-02-16T08:33:54.997Z,29.73
2023-02-16T08:36:26.391Z,29.63
2023-02-16T08:38:55.692Z,27.67
2023-02-16T08:41:26.859Z,29.43
2023-02-16T08:43:57.234Z,29.97
2023-02-16T08:46:25.105Z,37.03
2023-02-16T08:48:54.363Z,27.47
2023-02-16T08:51:23.646Z,29.57
2023-02-16T08:53:52.424Z,28.23
2023-02-16T08:56:40.071Z,33.27
2023-02-16T08:59:07.546Z,38.07
2023-02-16T09:01:36.001Z,31.50
2023-02-16T09:04:03.566Z,31.97
2023-02-16T09:06:31.173Z,28.30
2023-02-16T09:08:58.716Z,27.53
2023-02-16T09:11:27.795Z,28.37
2023-02-16T09:13:55.411Z,28.87
2023-02-16T09:16:24.801Z,27.27
2023-02-16T09:18:53.139Z,27.03
2023-02-16T09:21:25.611Z,27.17
2023-02-16T09:23:56.480Z,27.30
2023-02-16T09:26:29.196Z,28.43
2023-02-16T09:28:58.819Z,36.17
2023-02-16T09:31:34.336Z,25.73
2023-02-16T09:34:10.647Z,23.87
2023-02-16T09:36:38.755Z,23.20
2023-02-16T09:39:08.147Z,26.07
2023-02-16T09:41:55.214Z,23.07
2023-02-16T09:44:47.077Z,24.00
2023-02-16T09:47:40.920Z,25.03
2023-02-16T09:50:53.913Z,28.67
2023-02-16T09:53:39.528Z,25.10
2023-02-16T09:56:20.231Z,29.83
2023-02-16T09:58:58.408Z,26.50
2023-02-16T10:01:55.076Z,27.60
2023-02-16T10:04:46.079Z,29.57
2023-02-16T10:07:57.105Z,27.20
2023-02-16T10:11:07.592Z,26.60
2023-02-16T10:13:53.474Z,29.23
2023-02-16T10:16:30.449Z,30.87
2023-02-16T10:19:02.389Z,25.33
2023-02-16T10:21:31.689Z,28.07
2023-02-16T10:24:06.496Z,23.97
2023-02-16T10:27:08.421Z,25.77
2023-02-16T10:29:36.620Z,24.70
2023-02-16T10:32:30.657Z,27.03
2023-02-16T10:35:10.890Z,19.97
2023-02-16T10:38:12.663Z,20.87
2023-02-16T10:41:04.384Z,21.03
2023-02-16T10:43:40.836Z,21.60
2023-02-16T10:46:17.983Z,44.47
2023-02-16T10:48:46.685Z,25.40
2023-02-16T10:51:19.128Z,18.27
2023-02-16T10:53:54.581Z,20.47
2023-02-16T10:57:05.726Z,21.63
2023-02-16T10:59:47.332Z,21.00
2023-02-16T11:02:20.443Z,19.60
2023-02-16T11:04:52.617Z,23.53
2023-02-16T11:07:30.059Z,22.60
2023-02-16T11:10:03.228Z,20.13
2023-02-16T11:12:34.354Z,19.57
2023-02-16T11:15:19.865Z,16.90
2023-02-16T11:18:21.923Z,18.23
2023-02-16T11:20:53.584Z,17.43
2023-02-16T11:23:27.764Z,20.87
2023-02-16T11:26:10.215Z,22.33
2023-02-16T11:28:42.959Z,19.33
2023-02-16T11:31:27.274Z,18.67
2023-02-16T11:34:06.492Z,26.90
2023-02-16T11:36:53.064Z,17.93
2023-02-16T11:39:35.725Z,18.70
2023-02-16T11:42:19.099Z,37.10
2023-02-16T11:44:55.607Z,18.40
2023-02-16T11:47:37.623Z,20.70
2023-02-16T11:50:22.680Z,18.27
2023-02-16T11:52:54.311Z,21.37
2023-02-16T11:55:45.810Z,19.37
2023-02-16T11:58:27.009Z,22.40
2023-02-16T12:01:50.048Z,21.67
2023-02-16T12:04:20.243Z,21.57
2023-02-16T12:07:41.281Z,21.60
2023-02-16T12:10:22.644Z,20.83
2023-02-16T12:13:23.785Z,20.83
2023-02-16T12:16:16.496Z,20.73
2023-02-16T12:19:41.842Z,20.40
2023-02-16T12:22:27.004Z,21.53
2023-02-16T12:25:25.583Z,19.33
2023-02-16T12:28:17.242Z,24.53
2023-02-16T12:31:27.956Z,19.60
2023-02-16T12:34:25.851Z,19.07
2023-02-16T12:37:36.752Z,21.37
2023-02-16T12:40:39.699Z,16.33
2023-02-16T12:43:35.929Z,15.13
2023-02-16T12:46:33.386Z,14.40
2023-02-16T12:49:21.554Z,13.57
2023-02-16T12:52:31.763Z,17.70
2023-02-16T12:55:18.463Z,16.33
2023-02-16T12:58:16.640Z,17.93
2023-02-16T13:01:02.528Z,74.17
2023-02-16T13:03:39.973Z,19.70
2023-02-16T13:06:15.904Z,21.23
2023-02-16T13:09:13.278Z,19.63
2023-02-16T13:12:02.268Z,20.85
2023-02-16T13:14:36.331Z,21.00
2023-02-16T13:17:18.565Z,18.98
2023-02-16T13:19:47.608Z,20.52
2023-02-16T13:22:25.138Z,18.92
2023-02-16T13:25:28.222Z,16.98
2023-02-16T13:28:31.545Z,16.75
2023-02-16T13:31:15.560Z,16.42
2023-02-16T13:34:07.642Z,17.30
2023-02-16T13:37:00.591Z,23.23
2023-02-16T13:40:22.833Z,23.38
2023-02-16T13:43:02.451Z,16.55
2023-02-16T13:45:34.512Z,19.80
2023-02-16T13:48:02.566Z,19.42
2023-02-16T13:50:34.261Z,21.08
2023-02-16T13:53:20.944Z,17.30
2023-02-16T13:55:52.731Z,19.50
2023-02-16T13:58:20.185Z,19.10
2023-02-16T14:00:50.055Z,18.67
2023-02-16T14:03:17.730Z,17.20
2023-02-16T14:05:48.055Z,18.67
2023-02-16T14:08:28.305Z,18.15
2023-02-16T14:11:05.439Z,16.60
2023-02-16T14:13:39.057Z,15.93
2023-02-16T14:16:09.351Z,24.50
2023-02-16T14:18:57.166Z,17.23
2023-02-16T14:21:44.192Z,17.35
2023-02-16T14:24:25.797Z,22.52
2023-02-16T14:27:04.067Z,18.83
2023-02-16T14:29:58.844Z,16.50
2023-02-16T14:32:39.261Z,19.40
2023-02-16T14:35:19.990Z,16.17
2023-02-16T14:37:56.887Z,15.68
2023-02-16T14:40:40.383Z,38.33
2023-02-16T14:43:32.522Z,16.80
2023-02-16T14:46:56.875Z,20.23
2023-02-16T14:50:31.953Z,14.98
2023-02-16T14:53:43.062Z,18.05
2023-02-16T14:56:48.517Z,16.05
2023-02-16T14:59:50.303Z,18.35
2023-02-16T15:02:32.926Z,25.55
2023-02-16T15:05:22.384Z,20.00
2023-02-16T15:08:05.321Z,16.15
2023-02-16T15:10:32.891Z,16.10
2023-02-16T15:13:00.570Z,16.63
2023-02-16T15:18:47.812Z,17.15
2023-02-16T15:21:25.043Z,17.95
2023-02-16T15:23:56.302Z,17.00
2023-02-16T15:26:30.161Z,18.40
2023-02-16T15:29:21.459Z,18.52
2023-02-16T15:31:50.115Z,19.25
2023-02-16T15:34:33.841Z,23.77
2023-02-16T15:37:07.307Z,29.73
2023-02-16T15:39:48.409Z,26.33
2023-02-16T15:42:31.824Z,25.98
2023-02-16T15:45:02.411Z,29.60
2023-02-16T15:47:29.973Z,60.27
2023-02-16T15:49:57.486Z,175.43
2023-02-16T15:52:37.017Z,288.20
2023-02-16T15:55:09.185Z,264.63
2023-02-16T15:58:02.895Z,230.50
2023-02-16T16:00:33.252Z,305.80
2023-02-16T16:03:02.403Z,428.33
2023-02-16T16:05:36.874Z,445.37
2023-02-16T16:08:05.723Z,400.73
2023-02-16T16:10:36.919Z,422.30
2023-02-16T16:13:15.639Z,314.70
2023-02-16T16:16:10.219Z,351.03
2023-02-16T16:18:53.971Z,292.07
2023-02-16T16:21:34.521Z,233.10
2023-02-16T16:24:13.005Z,172.07
2023-02-16T16:26:57.878Z,142.10
2023-02-16T16:29:47.603Z,137.57
2023-02-16T16:32:31.426Z,130.60
2023-02-16T16:34:59.813Z,118.40
2023-02-16T16:37:36.450Z,130.37
2023-02-16T16:40:22.193Z,109.97
2023-02-16T16:43:13.284Z,115.20
2023-02-16T16:45:48.628Z,135.70
2023-02-16T16:48:37.083Z,145.70
2023-02-16T16:51:21.882Z,156.17
2023-02-16T16:54:01.933Z,176.67
2023-02-16T16:56:36.044Z,205.77
2023-02-16T16:59:07.042Z,202.63
2023-02-16T17:01:36.035Z,196.47
2023-02-16T17:04:03.693Z,183.80
2023-02-16T17:06:31.331Z,179.40
2023-02-16T17:08:58.981Z,164.07
2023-02-16T17:11:35.241Z,143.73
2023-02-16T17:14:24.125Z,140.07
2023-02-16T17:16:54.319Z,142.63
2023-02-16T17:19:24.090Z,160.07
2023-02-16T17:21:51.666Z,163.43
2023-02-16T17:24:21.245Z,170.07
2023-02-16T17:26:50.222Z,139.27
2023-02-16T17:29:18.405Z,117.60
2023-02-16T17:31:46.036Z,131.00
2023-02-16T17:34:13.586Z,153.43
2023-02-16T17:36:42.939Z,161.90
2023-02-16T17:39:16.145Z,165.40
2023-02-16T17:41:45.980Z,158.63
2023-02-16T17:44:14.438Z,166.37
2023-02-16T17:46:46.528Z,146.47
2023-02-16T17:49:15.097Z,147.60
2023-02-16T17:51:46.438Z,143.57
2023-02-16T17:54:36.993Z,120.10
2023-02-16T17:57:11.591Z,108.37
2023-02-16T17:59:41.641Z,131.47
2023-02-16T18:02:12.222Z,132.00
2023-02-16T18:04:42.656Z,118.17
2023-02-16T18:07:20.508Z,113.47
2023-02-16T18:09:54.512Z,100.87
2023-02-16T18:12:28.650Z,83.43
2023-02-16T18:14:56.319Z,73.90
2023-02-16T18:17:24.918Z,70.33
2023-02-16T18:19:57.872Z,68.60
2023-02-16T18:22:29.699Z,64.10
2023-02-16T18:25:02.796Z,65.10
2023-02-16T18:27:33.424Z,59.70
2023-02-16T18:30:03.794Z,55.90
2023-02-16T18:32:32.072Z,49.03
2023-02-16T18:35:00.702Z,38.93
2023-02-16T18:37:31.078Z,42.17
2023-02-16T18:39:59.825Z,37.77
2023-02-16T18:42:28.560Z,39.93
2023-02-16T18:44:56.038Z,41.30
2023-02-16T18:47:23.940Z,51.80
2023-02-16T18:49:52.566Z,74.17
2023-02-16T18:52:20.500Z,106.73
2023-02-16T18:54:48.071Z,108.13
2023-02-16T18:57:16.247Z,95.20
2023-02-16T18:59:44.204Z,93.23
2023-02-16T19:02:13.170Z,163.30
2023-02-16T19:04:41.709Z,121.70
2023-02-16T19:07:10.800Z,86.63
2023-02-16T19:09:39.782Z,101.20
2023-02-16T19:12:09.537Z,83.77
2023-02-16T19:14:38.383Z,56.87
2023-02-16T19:17:07.711Z,82.53
2023-02-16T19:19:36.810Z,218.17
2023-02-16T19:22:05.811Z,192.47
2023-02-16T19:24:34.946Z,58.23
2023-02-16T19:27:03.214Z,48.33
2023-02-16T19:29:52.228Z,107.50
2023-02-16T19:32:43.662Z,160.23
2023-02-16T19:35:12.196Z,181.87
2023-02-16T19:37:41.128Z,214.23
2023-02-16T19:40:12.796Z,197.53
2023-02-16T19:42:42.875Z,102.70
2023-02-16T19:45:10.448Z,103.10
2023-02-16T19:47:37.942Z,95.97
2023-02-16T19:50:06.567Z,77.57
2023-02-16T19:52:42.434Z,235.93
2023-02-16T19:55:11.580Z,143.90
2023-02-16T19:57:42.554Z,224.60
2023-02-16T20:00:31.939Z,168.00
2023-02-16T20:03:04.929Z,170.40
2023-02-16T20:05:37.118Z,107.40
2023-02-16T20:08:06.677Z,164.83
2023-02-16T20:10:34.949Z,168.20
2023-02-16T20:13:10.712Z,136.90
2023-02-16T20:15:38.941Z,115.90
2023-02-16T20:18:09.439Z,90.07
2023-02-16T20:20:40.409Z,55.43
2023-02-16T20:23:08.745Z,76.83
2023-02-16T20:25:40.409Z,78.50
2023-02-16T20:28:09.611Z,63.73
2023-02-16T20:30:37.084Z,72.73
2023-02-16T20:33:04.547Z,66.23
2023-02-16T20:35:33.213Z,62.43
2023-02-16T20:38:01.645Z,77.57
2023-02-16T20:40:29.153Z,69.57
2023-02-16T20:42:56.771Z,68.13
2023-02-16T20:45:25.588Z,81.63
2023-02-16T20:47:53.149Z,65.57
2023-02-16T20:50:21.383Z,68.17
2023-02-16T20:52:50.836Z,73.80
2023-02-16T20:55:19.422Z,67.57
2023-02-16T20:57:46.919Z,67.67
2023-02-16T21:00:22.065Z,69.67
2023-02-16T21:02:50.455Z,63.13
2023-02-16T21:05:19.208Z,58.23
2023-02-16T21:07:49.116Z,52.63
2023-02-16T21:10:17.074Z,56.47
2023-02-16T21:12:44.898Z,51.53
2023-02-16T21:15:12.598Z,42.53
2023-02-16T21:17:40.111Z,46.97
2023-02-16T21:20:09.070Z,48.90
2023-02-16T21:22:36.794Z,58.60
2023-02-16T21:25:04.609Z,61.07
2023-02-16T21:27:32.068Z,62.77
2023-02-16T21:29:59.526Z,74.37
2023-02-16T21:32:27.042Z,89.37
2023-02-16T21:34:54.980Z,85.43
2023-02-16T21:37:22.868Z,108.97
2023-02-16T21:40:08.994Z,94.73
2023-02-16T21:42:36.552Z,66.10
2023-02-16T21:45:13.321Z,68.90
2023-02-16T21:48:04.821Z,71.77
2023-02-16T21:50:40.846Z,61.77
2023-02-16T21:53:10.536Z,53.03
2023-02-16T21:56:12.550Z,59.57
2023-02-16T21:58:40.103Z,53.23
2023-02-16T22:01:09.700Z,45.67
2023-02-16T22:03:38.220Z,35.90
2023-02-16T22:06:08.146Z,32.90
2023-02-16T22:08:38.127Z,29.33
2023-02-16T22:11:13.265Z,32.10
2023-02-16T22:13:41.515Z,30.70
2023-02-16T22:16:18.913Z,35.50
2023-02-16T22:18:47.778Z,35.13
2023-02-16T22:21:16.338Z,35.83
2023-02-16T22:23:43.865Z,39.43
2023-02-16T22:26:26.149Z,47.97
2023-02-16T22:28:54.670Z,53.47
2023-02-16T22:31:26.235Z,60.00
2023-02-16T22:34:05.805Z,65.17
2023-02-16T22:36:34.126Z,70.50
2023-02-16T22:39:01.742Z,69.13
2023-02-16T22:41:29.256Z,82.67
2023-02-16T22:43:59.201Z,71.43
2023-02-16T22:46:29.498Z,69.20
2023-02-16T22:48:58.668Z,60.00
2023-02-16T22:51:29.342Z,57.77
2023-02-16T22:54:01.158Z,55.20
2023-02-16T22:56:29.994Z,44.73
2023-02-16T22:58:59.305Z,43.40
2023-02-16T23:01:30.357Z,39.47
2023-02-16T23:04:00.701Z,68.20
2023-02-16T23:06:38.304Z,48.00
2023-02-16T23:09:17.417Z,62.93
2023-02-16T23:11:45.621Z,56.83
2023-02-16T23:14:16.674Z,50.70
2023-02-16T23:16:46.421Z,51.80
2023-02-16T23:19:17.105Z,48.27
2023-02-16T23:21:47.909Z,50.67
2023-02-16T23:24:20.822Z,47.43
2023-02-16T23:26:49.475Z,50.63
2023-02-16T23:29:17.277Z,46.00
2023-02-16T23:31:48.999Z,48.37
2023-02-16T23:34:18.366Z,45.27
2023-02-16T23:36:46.597Z,46.10
2023-02-16T23:39:17.786Z,50.17
2023-02-16T23:41:46.463Z,43.30
2023-02-16T23:44:14.835Z,48.73
2023-02-16T23:46:42.614Z,45.77
2023-02-16T23:49:10.219Z,46.23
2023-02-16T23:51:37.749Z,46.83
2023-02-16T23:54:05.371Z,51.60
2023-02-16T23:56:32.910Z,47.50
2023-02-16T23:59:02.016Z,52.80
